sensor_id;sensor_type;location;lat;lon;timestamp;pressure;altitude;pressure_sealevel;temperature;humidity
16194;BME280;8204;53.582;10.080;2023-08-21T00:00:50;101550.38;;;21.70;100.00
16194;BME280;8204;53.582;10.080;2023-08-21T00:03:17;101557.97;;;21.67;100.00
16194;BME280;8204;53.582;10.080;2023-08-21T00:05:43;101522.91;;;21.63;100.00
16194;BME280;8204;53.582;10.080;2023-08-21T00:08:08;101530.50;;;21.60;100.00
16194;BME280;8204;53.582;10.080;2023-08-21T00:10:37;101506.91;;;21.57;100.00
16194;BME280;8204;53.582;10.080;2023-08-21T00:13:04;101516.16;;;21.54;100.00
16194;BME280;8204;53.582;10.080;2023-08-21T00:15:30;101505.25;;;21.49;100.00
16194;BME280;8204;53.582;10.080;2023-08-21T00:17:56;101480.66;;;21.47;100.00
16194;BME280;8204;53.582;10.080;2023-08-21T00:20:26;101504.25;;;21.44;100.00
16194;BME280;8204;53.582;10.080;2023-08-21T00:22:52;101487.03;;;21.40;100.00
16194;BME280;8204;53.582;10.080;2023-08-21T00:25:17;101486.63;;;21.36;100.00
16194;BME280;8204;53.582;10.080;2023-08-21T00:27:42;101457.72;;;21.33;100.00
16194;BME280;8204;53.582;10.080;2023-08-21T00:30:08;101458.16;;;21.30;100.00
16194;BME280;8204;53.582;10.080;2023-08-21T00:32:34;101469.22;;;21.27;100.00
16194;BME280;8204;53.582;10.080;2023-08-21T00:34:59;101471.50;;;21.24;100.00
16194;BME280;8204;53.582;10.080;2023-08-21T00:37:25;101476.63;;;21.19;100.00
16194;BME280;8204;53.582;10.080;2023-08-21T00:39:51;101489.56;;;21.16;100.00
16194;BME280;8204;53.582;10.080;2023-08-21T00:42:16;101472.16;;;21.13;100.00
16194;BME280;8204;53.582;10.080;2023-08-21T00:44:42;101497.56;;;21.09;100.00
16194;BME280;8204;53.582;10.080;2023-08-21T00:47:08;101459.88;;;21.06;100.00
16194;BME280;8204;53.582;10.080;2023-08-21T00:49:33;101453.94;;;21.04;100.00
16194;BME280;8204;53.582;10.080;2023-08-21T00:51:59;101451.66;;;21.01;100.00
16194;BME280;8204;53.582;10.080;2023-08-21T00:54:25;101433.44;;;20.98;100.00
16194;BME280;8204;53.582;10.080;2023-08-21T00:56:50;101424.22;;;20.94;100.00
16194;BME280;8204;53.582;10.080;2023-08-21T00:59:18;101452.94;;;20.92;100.00
16194;BME280;8204;53.582;10.080;2023-08-21T01:01:44;101417.88;;;20.88;100.00
16194;BME280;8204;53.582;10.080;2023-08-21T01:04:10;101404.75;;;20.87;100.00
16194;BME280;8204;53.582;10.080;2023-08-21T01:06:35;101382.84;;;20.85;100.00
16194;BME280;8204;53.582;10.080;2023-08-21T01:09:07;101398.44;;;20.81;100.00
16194;BME280;8204;53.582;10.080;2023-08-21T01:11:43;101397.00;;;20.79;100.00
16194;BME280;8204;53.582;10.080;2023-08-21T01:14:16;101415.25;;;20.75;100.00
16194;BME280;8204;53.582;10.080;2023-08-21T01:16:53;101405.81;;;20.73;100.00
16194;BME280;8204;53.582;10.080;2023-08-21T01:19:35;101415.84;;;20.71;100.00
16194;BME280;8204;53.582;10.080;2023-08-21T01:22:03;101418.91;;;20.68;100.00
16194;BME280;8204;53.582;10.080;2023-08-21T01:24:29;101412.38;;;20.64;100.00
16194;BME280;8204;53.582;10.080;2023-08-21T01:26:54;101425.06;;;20.62;100.00
16194;BME280;8204;53.582;10.080;2023-08-21T01:29:19;101416.66;;;20.58;100.00
16194;BME280;8204;53.582;10.080;2023-08-21T01:31:50;101394.78;;;20.56;100.00
16194;BME280;8204;53.582;10.080;2023-08-21T01:34:17;101407.69;;;20.53;100.00
16194;BME280;8204;53.582;10.080;2023-08-21T01:36:44;101414.22;;;20.51;100.00
16194;BME280;8204;53.582;10.080;2023-08-21T01:39:10;101392.53;;;20.47;100.00
16194;BME280;8204;53.582;10.080;2023-08-21T01:41:35;101394.78;;;20.44;100.00
16194;BME280;8204;53.582;10.080;2023-08-21T01:44:01;101386.38;;;20.40;100.00
16194;BME280;8204;53.582;10.080;2023-08-21T01:46:27;101376.75;;;20.39;100.00
16194;BME280;8204;53.582;10.080;2023-08-21T01:48:52;101364.69;;;20.37;100.00
16194;BME280;8204;53.582;10.080;2023-08-21T01:51:18;101348.91;;;20.35;100.00
16194;BME280;8204;53.582;10.080;2023-08-21T01:53:43;101322.69;;;20.32;100.00
16194;BME280;8204;53.582;10.080;2023-08-21T01:56:09;101353.00;;;20.31;100.00
16194;BME280;8204;53.582;10.080;2023-08-21T01:58:34;101347.28;;;20.28;100.00
16194;BME280;8204;53.582;10.080;2023-08-21T02:00:59;101353.84;;;20.25;100.00
16194;BME280;8204;53.582;10.080;2023-08-21T02:03:26;101348.91;;;20.22;100.00
16194;BME280;8204;53.582;10.080;2023-08-21T02:05:55;101363.66;;;20.18;100.00
16194;BME280;8204;53.582;10.080;2023-08-21T02:08:27;101352.41;;;20.16;100.00
16194;BME280;8204;53.582;10.080;2023-08-21T02:10:55;101319.03;;;20.14;100.00
16194;BME280;8204;53.582;10.080;2023-08-21T02:13:21;101305.09;;;20.12;100.00
16194;BME280;8204;53.582;10.080;2023-08-21T02:15:46;101314.31;;;20.09;100.00
16194;BME280;8204;53.582;10.080;2023-08-21T02:18:12;101326.19;;;20.07;100.00
16194;BME280;8204;53.582;10.080;2023-08-21T02:20:37;101332.75;;;20.04;100.00
16194;BME280;8204;53.582;10.080;2023-08-21T02:23:03;101331.31;;;20.02;100.00
16194;BME280;8204;53.582;10.080;2023-08-21T02:25:29;101312.91;;;20.00;100.00
16194;BME280;8204;53.582;10.080;2023-08-21T02:27:56;101297.34;;;19.97;100.00
16194;BME280;8204;53.582;10.080;2023-08-21T02:30:21;101271.97;;;19.95;100.00
16194;BME280;8204;53.582;10.080;2023-08-21T02:32:50;101258.88;;;19.93;100.00
16194;BME280;8204;53.582;10.080;2023-08-21T02:35:16;101243.06;;;19.92;100.00
16194;BME280;8204;53.582;10.080;2023-08-21T02:37:41;101261.31;;;19.88;100.00
16194;BME280;8204;53.582;10.080;2023-08-21T02:40:07;101281.16;;;19.86;100.00
16194;BME280;8204;53.582;10.080;2023-08-21T02:42:34;101309.59;;;19.85;100.00
16194;BME280;8204;53.582;10.080;2023-08-21T02:45:00;101305.28;;;19.84;100.00
16194;BME280;8204;53.582;10.080;2023-08-21T02:47:28;101284.63;;;19.80;100.00
16194;BME280;8204;53.582;10.080;2023-08-21T02:49:54;101282.97;;;19.79;100.00
16194;BME280;8204;53.582;10.080;2023-08-21T02:52:19;101300.16;;;19.77;100.00
16194;BME280;8204;53.582;10.080;2023-08-21T02:54:44;101311.22;;;19.74;100.00
16194;BME280;8204;53.582;10.080;2023-08-21T02:57:10;101306.13;;;19.72;100.00
16194;BME280;8204;53.582;10.080;2023-08-21T02:59:35;101300.41;;;19.69;100.00
16194;BME280;8204;53.582;10.080;2023-08-21T03:02:00;101299.78;;;19.67;100.00
16194;BME280;8204;53.582;10.080;2023-08-21T03:04:26;101319.41;;;19.66;100.00
16194;BME280;8204;53.582;10.080;2023-08-21T03:06:52;101316.53;;;19.61;100.00
16194;BME280;8204;53.582;10.080;2023-08-21T03:09:17;101307.72;;;19.60;100.00
16194;BME280;8204;53.582;10.080;2023-08-21T03:11:42;101292.00;;;19.59;100.00
16194;BME280;8204;53.582;10.080;2023-08-21T03:14:08;101279.13;;;19.56;100.00
16194;BME280;8204;53.582;10.080;2023-08-21T03:16:33;101270.31;;;19.55;100.00
16194;BME280;8204;53.582;10.080;2023-08-21T03:19:00;101244.56;;;19.56;100.00
16194;BME280;8204;53.582;10.080;2023-08-21T03:21:26;101213.03;;;19.53;100.00
16194;BME280;8204;53.582;10.080;2023-08-21T03:23:55;101175.03;;;19.52;100.00
16194;BME280;8204;53.582;10.080;2023-08-21T03:26:20;101165.59;;;19.50;100.00
16194;BME280;8204;53.582;10.080;2023-08-21T03:28:46;101143.50;;;19.49;100.00
16194;BME280;8204;53.582;10.080;2023-08-21T03:31:11;101157.81;;;19.48;100.00
16194;BME280;8204;53.582;10.080;2023-08-21T03:33:37;101126.13;;;19.47;100.00
16194;BME280;8204;53.582;10.080;2023-08-21T03:36:02;101120.81;;;19.47;100.00
16194;BME280;8204;53.582;10.080;2023-08-21T03:38:27;101111.84;;;19.48;100.00
16194;BME280;8204;53.582;10.080;2023-08-21T03:40:53;101114.88;;;19.45;100.00
16194;BME280;8204;53.582;10.080;2023-08-21T03:43:18;101106.91;;;19.45;100.00
16194;BME280;8204;53.582;10.080;2023-08-21T03:45:43;101108.78;;;19.44;100.00
16194;BME280;8204;53.582;10.080;2023-08-21T03:48:09;101123.88;;;19.44;100.00
16194;BME280;8204;53.582;10.080;2023-08-21T03:50:34;101119.63;;;19.43;100.00
16194;BME280;8204;53.582;10.080;2023-08-21T03:53:00;101124.31;;;19.41;100.00
16194;BME280;8204;53.582;10.080;2023-08-21T03:55:26;101124.31;;;19.41;100.00
16194;BME280;8204;53.582;10.080;2023-08-21T03:57:51;101119.22;;;19.39;100.00
16194;BME280;8204;53.582;10.080;2023-08-21T04:00:17;101108.75;;;19.38;100.00
16194;BME280;8204;53.582;10.080;2023-08-21T04:02:43;101128.38;;;19.37;100.00
16194;BME280;8204;53.582;10.080;2023-08-21T04:05:08;101144.34;;;19.37;100.00
16194;BME280;8204;53.582;10.080;2023-08-21T04:07:36;101136.34;;;19.37;100.00
16194;BME280;8204;53.582;10.080;2023-08-21T04:10:01;101127.78;;;19.35;100.00
16194;BME280;8204;53.582;10.080;2023-08-21T04:12:26;101142.91;;;19.34;100.00
16194;BME280;8204;53.582;10.080;2023-08-21T04:14:52;101126.16;;;19.34;100.00
16194;BME280;8204;53.582;10.080;2023-08-21T04:17:21;101121.06;;;19.32;100.00
16194;BME280;8204;53.582;10.080;2023-08-21T04:19:47;101122.88;;;19.32;100.00
16194;BME280;8204;53.582;10.080;2023-08-21T04:22:13;101118.56;;;19.31;100.00
16194;BME280;8204;53.582;10.080;2023-08-21T04:24:39;101124.09;;;19.29;100.00
16194;BME280;8204;53.582;10.080;2023-08-21T04:27:04;101132.06;;;19.29;100.00
16194;BME280;8204;53.582;10.080;2023-08-21T04:29:30;101124.91;;;19.30;100.00
16194;BME280;8204;53.582;10.080;2023-08-21T04:31:55;101126.97;;;19.28;100.00
16194;BME280;8204;53.582;10.080;2023-08-21T04:34:21;101132.28;;;19.28;100.00
16194;BME280;8204;53.582;10.080;2023-08-21T04:36:47;101117.38;;;19.27;100.00
16194;BME280;8204;53.582;10.080;2023-08-21T04:39:12;101121.88;;;19.26;100.00
16194;BME280;8204;53.582;10.080;2023-08-21T04:41:39;101095.31;;;19.26;100.00
16194;BME280;8204;53.582;10.080;2023-08-21T04:44:04;101088.94;;;19.27;100.00
16194;BME280;8204;53.582;10.080;2023-08-21T04:46:30;101074.84;;;19.27;100.00
16194;BME280;8204;53.582;10.080;2023-08-21T04:48:55;101040.09;;;19.28;100.00
16194;BME280;8204;53.582;10.080;2023-08-21T04:51:21;101042.53;;;19.30;100.00
16194;BME280;8204;53.582;10.080;2023-08-21T04:53:46;101022.09;;;19.30;100.00
16194;BME280;8204;53.582;10.080;2023-08-21T04:56:11;101024.53;;;19.32;100.00
16194;BME280;8204;53.582;10.080;2023-08-21T04:58:37;101019.63;;;19.35;100.00
16194;BME280;8204;53.582;10.080;2023-08-21T05:01:04;101013.06;;;19.38;100.00
16194;BME280;8204;53.582;10.080;2023-08-21T05:03:30;101011.25;;;19.38;100.00
16194;BME280;8204;53.582;10.080;2023-08-21T05:05:56;101010.63;;;19.43;100.00
16194;BME280;8204;53.582;10.080;2023-08-21T05:08:23;100990.97;;;19.44;100.00
16194;BME280;8204;53.582;10.080;2023-08-21T05:10:54;100995.66;;;19.48;100.00
16194;BME280;8204;53.582;10.080;2023-08-21T05:13:20;100990.34;;;19.48;100.00
16194;BME280;8204;53.582;10.080;2023-08-21T05:15:53;100981.13;;;19.51;100.00
16194;BME280;8204;53.582;10.080;2023-08-21T05:18:22;100988.72;;;19.54;100.00
16194;BME280;8204;53.582;10.080;2023-08-21T05:20:48;100984.81;;;19.56;100.00
16194;BME280;8204;53.582;10.080;2023-08-21T05:23:14;100979.88;;;19.60;100.00
16194;BME280;8204;53.582;10.080;2023-08-21T05:25:40;100972.53;;;19.62;100.00
16194;BME280;8204;53.582;10.080;2023-08-21T05:28:06;100971.28;;;19.64;100.00
16194;BME280;8204;53.582;10.080;2023-08-21T05:30:32;100961.03;;;19.68;100.00
16194;BME280;8204;53.582;10.080;2023-08-21T05:32:57;100956.13;;;19.71;100.00
16194;BME280;8204;53.582;10.080;2023-08-21T05:35:23;100967.16;;;19.75;100.00
16194;BME280;8204;53.582;10.080;2023-08-21T05:37:48;100961.16;;;19.79;100.00
16194;BME280;8204;53.582;10.080;2023-08-21T05:40:14;100962.41;;;19.83;100.00
16194;BME280;8204;53.582;10.080;2023-08-21T05:42:39;100969.13;;;19.85;100.00
16194;BME280;8204;53.582;10.080;2023-08-21T05:45:05;100972.97;;;19.89;100.00
16194;BME280;8204;53.582;10.080;2023-08-21T05:47:31;100972.38;;;19.94;100.00
16194;BME280;8204;53.582;10.080;2023-08-21T05:49:56;100966.44;;;19.98;100.00
16194;BME280;8204;53.582;10.080;2023-08-21T05:52:22;100960.69;;;20.01;100.00
16194;BME280;8204;53.582;10.080;2023-08-21T05:54:48;100960.88;;;20.06;100.00
16194;BME280;8204;53.582;10.080;2023-08-21T05:57:14;100962.06;;;20.10;100.00
16194;BME280;8204;53.582;10.080;2023-08-21T05:59:46;100966.97;;;20.13;100.00
16194;BME280;8204;53.582;10.080;2023-08-21T06:02:13;100991.06;;;20.18;100.00
16194;BME280;8204;53.582;10.080;2023-08-21T06:04:42;101001.09;;;20.23;100.00
16194;BME280;8204;53.582;10.080;2023-08-21T06:07:09;101024.59;;;20.26;100.00
16194;BME280;8204;53.582;10.080;2023-08-21T06:09:35;101049.56;;;20.31;100.00
16194;BME280;8204;53.582;10.080;2023-08-21T06:12:01;101057.13;;;20.34;100.00
16194;BME280;8204;53.582;10.080;2023-08-21T06:14:27;101054.00;;;20.37;100.00
16194;BME280;8204;53.582;10.080;2023-08-21T06:17:00;101079.16;;;20.41;100.00
16194;BME280;8204;53.582;10.080;2023-08-21T06:19:26;101072.41;;;20.45;100.00
16194;BME280;8204;53.582;10.080;2023-08-21T06:21:52;101072.56;;;20.50;100.00
16194;BME280;8204;53.582;10.080;2023-08-21T06:24:17;101093.22;;;20.54;100.00
16194;BME280;8204;53.582;10.080;2023-08-21T06:26:43;101095.25;;;20.59;100.00
16194;BME280;8204;53.582;10.080;2023-08-21T06:29:08;101139.06;;;20.63;100.00
16194;BME280;8204;53.582;10.080;2023-08-21T06:31:34;101167.94;;;20.66;100.00
16194;BME280;8204;53.582;10.080;2023-08-21T06:33:59;101172.22;;;20.67;100.00
16194;BME280;8204;53.582;10.080;2023-08-21T06:36:25;101176.72;;;20.73;100.00
16194;BME280;8204;53.582;10.080;2023-08-21T06:38:50;101164.63;;;20.77;100.00
16194;BME280;8204;53.582;10.080;2023-08-21T06:41:15;101175.44;;;20.82;100.00
16194;BME280;8204;53.582;10.080;2023-08-21T06:43:41;101152.47;;;20.87;100.00
16194;BME280;8204;53.582;10.080;2023-08-21T06:46:07;101154.28;;;20.93;100.00
16194;BME280;8204;53.582;10.080;2023-08-21T06:48:34;101180.28;;;20.98;100.00
16194;BME280;8204;53.582;10.080;2023-08-21T06:51:00;101218.16;;;21.00;100.00
16194;BME280;8204;53.582;10.080;2023-08-21T06:53:28;101269.00;;;21.05;100.00
16194;BME280;8204;53.582;10.080;2023-08-21T06:55:54;101300.75;;;21.06;100.00
16194;BME280;8204;53.582;10.080;2023-08-21T06:58:20;101315.69;;;21.14;100.00
16194;BME280;8204;53.582;10.080;2023-08-21T07:00:46;101348.69;;;21.13;100.00
16194;BME280;8204;53.582;10.080;2023-08-21T07:03:11;101352.38;;;21.18;100.00
16194;BME280;8204;53.582;10.080;2023-08-21T07:05:38;101343.75;;;21.23;100.00
16194;BME280;8204;53.582;10.080;2023-08-21T07:08:04;101356.63;;;21.26;100.00
16194;BME280;8204;53.582;10.080;2023-08-21T07:10:35;101331.59;;;21.33;100.00
16194;BME280;8204;53.582;10.080;2023-08-21T07:13:02;101349.63;;;21.37;100.00
16194;BME280;8204;53.582;10.080;2023-08-21T07:15:29;101374.00;;;21.41;100.00
16194;BME280;8204;53.582;10.080;2023-08-21T07:17:54;101363.75;;;21.44;100.00
16194;BME280;8204;53.582;10.080;2023-08-21T07:20:21;101376.00;;;21.52;100.00
16194;BME280;8204;53.582;10.080;2023-08-21T07:22:47;101401.03;;;21.57;100.00
16194;BME280;8204;53.582;10.080;2023-08-21T07:25:12;101455.59;;;21.61;100.00
16194;BME280;8204;53.582;10.080;2023-08-21T07:27:38;101439.75;;;21.66;100.00
16194;BME280;8204;53.582;10.080;2023-08-21T07:30:05;101430.09;;;21.72;100.00
16194;BME280;8204;53.582;10.080;2023-08-21T07:32:31;101460.44;;;21.77;100.00
16194;BME280;8204;53.582;10.080;2023-08-21T07:34:57;101465.13;;;21.82;100.00
16194;BME280;8204;53.582;10.080;2023-08-21T07:37:22;101469.81;;;21.86;100.00
16194;BME280;8204;53.582;10.080;2023-08-21T07:39:47;101456.66;;;21.91;100.00
16194;BME280;8204;53.582;10.080;2023-08-21T07:42:13;101458.47;;;21.97;100.00
16194;BME280;8204;53.582;10.080;2023-08-21T07:44:39;101500.53;;;22.02;100.00
16194;BME280;8204;53.582;10.080;2023-08-21T07:47:05;101493.53;;;22.07;100.00
16194;BME280;8204;53.582;10.080;2023-08-21T07:49:33;101568.44;;;22.12;100.00
16194;BME280;8204;53.582;10.080;2023-08-21T07:51:59;101593.88;;;22.14;100.00
16194;BME280;8204;53.582;10.080;2023-08-21T07:54:24;101613.81;;;22.18;100.00
16194;BME280;8204;53.582;10.080;2023-08-21T07:56:50;101649.94;;;22.21;100.00
16194;BME280;8204;53.582;10.080;2023-08-21T07:59:16;101657.75;;;22.22;100.00
16194;BME280;8204;53.582;10.080;2023-08-21T08:01:41;101621.38;;;22.28;100.00
16194;BME280;8204;53.582;10.080;2023-08-21T08:04:08;101704.97;;;22.28;100.00
16194;BME280;8204;53.582;10.080;2023-08-21T08:06:33;101718.13;;;22.30;100.00
16194;BME280;8204;53.582;10.080;2023-08-21T08:08:59;101712.38;;;22.33;100.00
16194;BME280;8204;53.582;10.080;2023-08-21T08:11:24;101758.59;;;22.33;100.00
16194;BME280;8204;53.582;10.080;2023-08-21T08:13:50;101757.38;;;22.36;100.00
16194;BME280;8204;53.582;10.080;2023-08-21T08:16:15;101755.13;;;22.39;100.00
16194;BME280;8204;53.582;10.080;2023-08-21T08:18:42;101765.56;;;22.41;100.00
16194;BME280;8204;53.582;10.080;2023-08-21T08:21:07;101772.75;;;22.40;100.00
16194;BME280;8204;53.582;10.080;2023-08-21T08:23:32;101777.91;;;22.42;100.00
16194;BME280;8204;53.582;10.080;2023-08-21T08:25:58;101772.13;;;22.45;100.00
16194;BME280;8204;53.582;10.080;2023-08-21T08:28:23;101759.16;;;22.48;100.00
16194;BME280;8204;53.582;10.080;2023-08-21T08:30:50;101744.16;;;22.54;100.00
16194;BME280;8204;53.582;10.080;2023-08-21T08:33:15;101767.75;;;22.57;100.00
16194;BME280;8204;53.582;10.080;2023-08-21T08:35:40;101777.81;;;22.61;100.00
16194;BME280;8204;53.582;10.080;2023-08-21T08:38:06;101717.38;;;22.67;100.00
16194;BME280;8204;53.582;10.080;2023-08-21T08:40:33;101712.19;;;22.72;100.00
16194;BME280;8204;53.582;10.080;2023-08-21T08:42:59;101699.84;;;22.77;100.00
16194;BME280;8204;53.582;10.080;2023-08-21T08:45:29;101792.75;;;22.81;100.00
16194;BME280;8204;53.582;10.080;2023-08-21T08:47:59;101788.63;;;22.85;100.00
16194;BME280;8204;53.582;10.080;2023-08-21T08:50:28;101777.06;;;22.91;100.00
16194;BME280;8204;53.582;10.080;2023-08-21T08:52:55;101808.75;;;22.94;100.00
16194;BME280;8204;53.582;10.080;2023-08-21T08:55:21;101804.59;;;22.98;100.00
16194;BME280;8204;53.582;10.080;2023-08-21T08:57:47;101843.69;;;22.99;100.00
16194;BME280;8204;53.582;10.080;2023-08-21T09:00:13;101866.72;;;23.00;100.00
16194;BME280;8204;53.582;10.080;2023-08-21T09:02:38;101883.19;;;23.04;100.00
16194;BME280;8204;53.582;10.080;2023-08-21T09:05:04;101885.66;;;23.05;100.00
16194;BME280;8204;53.582;10.080;2023-08-21T09:07:29;101885.19;;;23.08;100.00
16194;BME280;8204;53.582;10.080;2023-08-21T09:09:55;101885.00;;;23.10;100.00
16194;BME280;8204;53.582;10.080;2023-08-21T09:12:20;101870.78;;;23.16;100.00
16194;BME280;8204;53.582;10.080;2023-08-21T09:14:46;101865.84;;;23.19;100.00
16194;BME280;8204;53.582;10.080;2023-08-21T09:17:12;101885.75;;;23.23;100.00
16194;BME280;8204;53.582;10.080;2023-08-21T09:19:38;101915.59;;;23.27;100.00
16194;BME280;8204;53.582;10.080;2023-08-21T09:22:11;101929.34;;;23.30;100.00
16194;BME280;8204;53.582;10.080;2023-08-21T09:24:41;101923.38;;;23.35;100.00
16194;BME280;8204;53.582;10.080;2023-08-21T09:27:23;101896.78;;;23.40;100.00
16194;BME280;8204;53.582;10.080;2023-08-21T09:29:49;101944.16;;;23.39;100.00
16194;BME280;8204;53.582;10.080;2023-08-21T09:32:14;101937.31;;;23.43;100.00
16194;BME280;8204;53.582;10.080;2023-08-21T09:34:41;101930.94;;;23.44;100.00
16194;BME280;8204;53.582;10.080;2023-08-21T09:37:08;101924.13;;;23.48;100.00
16194;BME280;8204;53.582;10.080;2023-08-21T09:39:35;101932.34;;;23.53;100.00
16194;BME280;8204;53.582;10.080;2023-08-21T09:42:05;101955.59;;;23.52;100.00
16194;BME280;8204;53.582;10.080;2023-08-21T09:44:35;101938.28;;;23.55;100.00
16194;BME280;8204;53.582;10.080;2023-08-21T09:47:01;101928.19;;;23.57;100.00
16194;BME280;8204;53.582;10.080;2023-08-21T09:49:26;101924.03;;;23.61;100.00
16194;BME280;8204;53.582;10.080;2023-08-21T09:51:53;101926.94;;;23.66;100.00
16194;BME280;8204;53.582;10.080;2023-08-21T09:54:20;101928.13;;;23.70;100.00
16194;BME280;8204;53.582;10.080;2023-08-21T09:56:46;101934.72;;;23.74;100.00
16194;BME280;8204;53.582;10.080;2023-08-21T09:59:13;101941.50;;;23.76;100.00
16194;BME280;8204;53.582;10.080;2023-08-21T10:01:39;101956.09;;;23.80;100.00
16194;BME280;8204;53.582;10.080;2023-08-21T10:04:06;101982.25;;;23.85;100.00
16194;BME280;8204;53.582;10.080;2023-08-21T10:06:34;101989.81;;;23.88;100.00
16194;BME280;8204;53.582;10.080;2023-08-21T10:09:00;101985.09;;;23.90;100.00
16194;BME280;8204;53.582;10.080;2023-08-21T10:11:25;101986.50;;;23.92;100.00
16194;BME280;8204;53.582;10.080;2023-08-21T10:13:51;101984.63;;;23.99;100.00
16194;BME280;8204;53.582;10.080;2023-08-21T10:16:18;101986.66;;;24.04;100.00
16194;BME280;8204;53.582;10.080;2023-08-21T10:18:45;101989.94;;;24.06;100.00
16194;BME280;8204;53.582;10.080;2023-08-21T10:21:18;101988.47;;;24.10;100.00
16194;BME280;8204;53.582;10.080;2023-08-21T10:23:50;101986.41;;;24.12;100.00
16194;BME280;8204;53.582;10.080;2023-08-21T10:26:19;101984.69;;;24.17;100.00
16194;BME280;8204;53.582;10.080;2023-08-21T10:28:53;101996.41;;;24.23;100.00
16194;BME280;8204;53.582;10.080;2023-08-21T10:31:29;102004.00;;;24.26;100.00
16194;BME280;8204;53.582;10.080;2023-08-21T10:33:55;102021.31;;;24.23;100.00
16194;BME280;8204;53.582;10.080;2023-08-21T10:39:15;102025.00;;;24.28;100.00
16194;BME280;8204;53.582;10.080;2023-08-21T10:42:01;102013.41;;;24.34;100.00
16194;BME280;8204;53.582;10.080;2023-08-21T10:47:21;102028.63;;;24.40;100.00
16194;BME280;8204;53.582;10.080;2023-08-21T10:49:51;102017.06;;;24.46;100.00
16194;BME280;8204;53.582;10.080;2023-08-21T10:54:53;102012.81;;;24.63;100.00
16194;BME280;8204;53.582;10.080;2023-08-21T10:57:19;102004.47;;;24.71;100.00
16194;BME280;8204;53.582;10.080;2023-08-21T10:59:51;101997.81;;;24.80;100.00
16194;BME280;8204;53.582;10.080;2023-08-21T11:02:17;102013.00;;;24.86;100.00
16194;BME280;8204;53.582;10.080;2023-08-21T11:04:43;102014.38;;;24.95;100.00
16194;BME280;8204;53.582;10.080;2023-08-21T11:07:11;102017.34;;;25.05;100.00
16194;BME280;8204;53.582;10.080;2023-08-21T11:09:37;102023.28;;;25.13;100.00
16194;BME280;8204;53.582;10.080;2023-08-21T11:12:13;102020.97;;;25.17;100.00
16194;BME280;8204;53.582;10.080;2023-08-21T11:14:40;102023.84;;;25.22;100.00
16194;BME280;8204;53.582;10.080;2023-08-21T11:17:06;102030.38;;;25.26;100.00
16194;BME280;8204;53.582;10.080;2023-08-21T11:19:33;102031.38;;;25.31;100.00
16194;BME280;8204;53.582;10.080;2023-08-21T11:22:02;102024.06;;;25.38;100.00
16194;BME280;8204;53.582;10.080;2023-08-21T11:24:48;102024.81;;;25.45;100.00
16194;BME280;8204;53.582;10.080;2023-08-21T11:27:16;102030.09;;;25.52;100.00
16194;BME280;8204;53.582;10.080;2023-08-21T11:29:46;102029.56;;;25.61;100.00
16194;BME280;8204;53.582;10.080;2023-08-21T11:32:16;102035.66;;;25.68;100.00
16194;BME280;8204;53.582;10.080;2023-08-21T11:34:47;102026.50;;;25.76;100.00
16194;BME280;8204;53.582;10.080;2023-08-21T11:37:13;102031.81;;;25.82;100.00
16194;BME280;8204;53.582;10.080;2023-08-21T11:39:43;102046.94;;;25.94;100.00
16194;BME280;8204;53.582;10.080;2023-08-21T11:42:10;102040.66;;;26.00;100.00
16194;BME280;8204;53.582;10.080;2023-08-21T11:44:40;102046.75;;;26.07;100.00
16194;BME280;8204;53.582;10.080;2023-08-21T11:47:06;102044.19;;;26.12;100.00
16194;BME280;8204;53.582;10.080;2023-08-21T11:49:31;102068.50;;;26.17;100.00
16194;BME280;8204;53.582;10.080;2023-08-21T11:51:57;102055.19;;;26.22;100.00
16194;BME280;8204;53.582;10.080;2023-08-21T11:54:22;102054.28;;;26.28;100.00
16194;BME280;8204;53.582;10.080;2023-08-21T11:56:47;102046.13;;;26.35;100.00
16194;BME280;8204;53.582;10.080;2023-08-21T11:59:22;102052.50;;;26.40;100.00
16194;BME280;8204;53.582;10.080;2023-08-21T12:01:50;102054.03;;;26.48;100.00
16194;BME280;8204;53.582;10.080;2023-08-21T12:04:17;102047.50;;;26.55;100.00
16194;BME280;8204;53.582;10.080;2023-08-21T12:06:44;102056.88;;;26.64;100.00
16194;BME280;8204;53.582;10.080;2023-08-21T12:09:09;102058.63;;;26.70;100.00
16194;BME280;8204;53.582;10.080;2023-08-21T12:11:35;102054.75;;;26.77;100.00
16194;BME280;8204;53.582;10.080;2023-08-21T12:14:03;102055.81;;;26.88;100.00
16194;BME280;8204;53.582;10.080;2023-08-21T12:16:28;102058.19;;;26.96;100.00
16194;BME280;8204;53.582;10.080;2023-08-21T12:18:54;102055.19;;;27.04;100.00
16194;BME280;8204;53.582;10.080;2023-08-21T12:21:22;102055.75;;;27.17;100.00
16194;BME280;8204;53.582;10.080;2023-08-21T12:23:48;102059.47;;;27.28;100.00
16194;BME280;8204;53.582;10.080;2023-08-21T12:26:13;102058.63;;;27.38;100.00
16194;BME280;8204;53.582;10.080;2023-08-21T12:28:45;102058.06;;;27.48;100.00
16194;BME280;8204;53.582;10.080;2023-08-21T12:31:11;102060.38;;;27.56;100.00
16194;BME280;8204;53.582;10.080;2023-08-21T12:33:36;102047.41;;;27.64;100.00
16194;BME280;8204;53.582;10.080;2023-08-21T12:36:35;102046.53;;;27.75;100.00
16194;BME280;8204;53.582;10.080;2023-08-21T12:39:04;102049.53;;;27.90;100.00
16194;BME280;8204;53.582;10.080;2023-08-21T12:41:31;102054.53;;;27.98;100.00
16194;BME280;8204;53.582;10.080;2023-08-21T12:44:01;102049.00;;;28.05;100.00
16194;BME280;8204;53.582;10.080;2023-08-21T12:46:28;102053.75;;;28.14;100.00